Time;durP1;ratioP1;P1;durP2;ratioP2;P2;SDS_P1;SDS_P2;PMS_P1;PMS_P2;Temp;Humidity;BMP_temperature;BMP_pressure;BME280_temperature;BME280_humidity;BME280_pressure;Samples;Min_cycle;Max_cycle;Signal;HPM_P1;HPM_P2
2022/04/09 00:00:23;;;;;;;32.92;5.57;;;;;;;;;;5071436;28;20370;-68
2022/04/09 00:03:27;;;;;;;35.22;6.32;;;;;;;;;;5059038;28;20046;-68
2022/04/09 00:06:31;;;;;;;29.75;5.78;;;;;;;;;;5071147;28;20037;-68
2022/04/09 00:09:36;;;;;;;24.88;5.80;;;;;;;;;;5071476;28;20040;-69
2022/04/09 00:12:45;;;;;;;34.90;6.95;;;;;;;;;;5070551;28;20058;-68
2022/04/09 00:15:49;;;;;;;34.40;5.75;;;;;;;;;;5071022;28;20059;-68
2022/04/09 00:18:53;;;;;;;31.60;6.22;;;;;;;;;;5071341;28;20365;-68
2022/04/09 00:21:58;;;;;;;31.92;5.55;;;;;;;;;;5071002;28;20045;-68
2022/04/09 00:25:04;;;;;;;23.23;5.25;;;;;;;;;;5071344;28;20499;-68
2022/04/09 00:28:08;;;;;;;34.47;5.55;;;;;;;;;;5071205;28;20389;-68
2022/04/09 00:31:12;;;;;;;31.05;6.10;;;;;;;;;;5071151;28;20037;-68
2022/04/09 00:34:17;;;;;;;30.25;6.03;;;;;;;;;;5071050;28;20480;-69
2022/04/09 00:37:21;;;;;;;35.85;6.70;;;;;;;;;;5070809;28;20503;-68
2022/04/09 00:40:27;;;;;;;30.90;6.78;;;;;;;;;;5069986;28;20039;-68
2022/04/09 00:43:31;;;;;;;38.70;9.05;;;;;;;;;;5070848;28;20040;-68
2022/04/09 00:46:35;;;;;;;37.13;9.88;;;;;;;;;;5070815;28;20044;-68
2022/04/09 00:49:40;;;;;;;35.10;10.00;;;;;;;;;;5069813;28;20037;-68
2022/04/09 00:52:49;;;;;;;33.80;10.52;;;;;;;;;;5069899;28;20044;-69
2022/04/09 00:56:13;;;;;;;34.20;11.10;;;;;;;;;;5069988;28;20415;-68
2022/04/09 00:59:21;;;;;;;29.00;10.85;;;;;;;;;;5070086;28;20044;-68
2022/04/09 01:02:25;;;;;;;24.88;9.15;;;;;;;;;;5069794;28;20535;-69
2022/04/09 01:05:30;;;;;;;30.33;9.65;;;;;;;;;;5070641;28;20043;-69
2022/04/09 01:08:35;;;;;;;31.38;8.63;;;;;;;;;;5070344;28;20064;-69
2022/04/09 01:11:40;;;;;;;33.50;9.73;;;;;;;;;;5069965;28;20040;-69
2022/04/09 01:14:45;;;;;;;33.72;11.45;;;;;;;;;;5069794;28;20044;-68
2022/04/09 01:17:50;;;;;;;25.67;9.07;;;;;;;;;;5070424;28;20048;-68
2022/04/09 01:20:57;;;;;;;26.67;9.23;;;;;;;;;;5070563;28;20036;-69
2022/04/09 01:24:04;;;;;;;37.60;13.85;;;;;;;;;;5069504;28;20511;-69
2022/04/09 01:27:09;;;;;;;33.55;11.95;;;;;;;;;;5070909;28;20056;-69
2022/04/09 01:30:16;;;;;;;33.00;9.63;;;;;;;;;;5069462;28;20052;-69
2022/04/09 01:33:21;;;;;;;24.65;8.00;;;;;;;;;;5070987;28;20511;-68
2022/04/09 01:36:26;;;;;;;33.50;6.97;;;;;;;;;;5073534;28;20056;-68
2022/04/09 01:39:30;;;;;;;36.70;7.93;;;;;;;;;;5073752;28;20493;-68
2022/04/09 01:42:36;;;;;;;29.25;7.88;;;;;;;;;;5061760;28;20404;-68
2022/04/09 01:45:41;;;;;;;30.30;6.40;;;;;;;;;;5073434;28;20036;-69
2022/04/09 01:48:57;;;;;;;28.67;6.60;;;;;;;;;;5073084;28;20043;-69
2022/04/09 01:52:01;;;;;;;24.77;6.15;;;;;;;;;;5073369;28;20511;-68
2022/04/09 01:55:05;;;;;;;28.13;6.10;;;;;;;;;;5072951;28;20049;-69
2022/04/09 01:58:10;;;;;;;34.33;5.80;;;;;;;;;;5073314;28;20219;-69
2022/04/09 02:01:18;;;;;;;27.08;5.82;;;;;;;;;;5073346;28;20040;-69
2022/04/09 02:04:22;;;;;;;32.33;5.57;;;;;;;;;;5073390;28;20043;-69
2022/04/09 02:07:27;;;;;;;26.10;5.10;;;;;;;;;;5072623;28;20055;-69
2022/04/09 02:10:34;;;;;;;24.52;4.93;;;;;;;;;;5072741;28;20048;-69
2022/04/09 02:13:39;;;;;;;30.27;4.60;;;;;;;;;;5072773;28;20041;-69
2022/04/09 02:16:43;;;;;;;29.73;6.72;;;;;;;;;;5073427;28;20045;-68
2022/04/09 02:19:47;;;;;;;28.02;5.70;;;;;;;;;;5072602;28;20060;-68
2022/04/09 02:22:51;;;;;;;32.85;5.47;;;;;;;;;;5072238;28;20048;-68
2022/04/09 02:25:56;;;;;;;27.38;4.80;;;;;;;;;;5073268;28;20376;-68
2022/04/09 02:29:00;;;;;;;25.13;5.93;;;;;;;;;;5073428;28;20045;-67
2022/04/09 02:32:05;;;;;;;27.67;4.90;;;;;;;;;;5072358;28;20040;-69
2022/04/09 02:35:11;;;;;;;26.42;5.70;;;;;;;;;;5073385;28;20033;-69
2022/04/09 02:38:17;;;;;;;28.05;5.18;;;;;;;;;;5060655;28;20048;-69
2022/04/09 02:41:21;;;;;;;24.70;5.32;;;;;;;;;;5061019;28;20028;-69
2022/04/09 02:44:26;;;;;;;23.98;5.40;;;;;;;;;;5071966;28;20048;-69
2022/04/09 02:47:30;;;;;;;28.30;5.70;;;;;;;;;;5073096;28;20045;-69
2022/04/09 02:50:34;;;;;;;29.27;5.20;;;;;;;;;;5072240;28;20040;-69
2022/04/09 02:53:39;;;;;;;30.80;4.90;;;;;;;;;;5071994;28;20028;-68
2022/04/09 02:56:46;;;;;;;28.80;5.65;;;;;;;;;;5071608;28;20436;-68
2022/04/09 02:59:51;;;;;;;30.00;6.43;;;;;;;;;;5071776;28;20381;-68
2022/04/09 03:02:55;;;;;;;24.77;4.70;;;;;;;;;;5060271;28;20111;-68
2022/04/09 03:06:09;;;;;;;24.20;4.70;;;;;;;;;;5071497;28;20041;-68
2022/04/09 03:09:16;;;;;;;27.38;4.97;;;;;;;;;;5072695;28;20040;-68
2022/04/09 03:12:21;;;;;;;29.33;5.43;;;;;;;;;;5071418;28;20048;-68
2022/04/09 03:15:26;;;;;;;21.67;4.88;;;;;;;;;;5072425;28;20115;-68
2022/04/09 03:18:32;;;;;;;22.70;4.90;;;;;;;;;;5071631;28;20052;-69
2022/04/09 03:21:37;;;;;;;21.98;4.95;;;;;;;;;;5071449;28;20045;-68
2022/04/09 03:24:41;;;;;;;32.13;5.60;;;;;;;;;;5071468;28;20044;-68
2022/04/09 03:27:48;;;;;;;30.35;4.75;;;;;;;;;;5071847;28;20032;-68
2022/04/09 03:30:52;;;;;;;24.25;4.50;;;;;;;;;;5071237;28;20040;-69
2022/04/09 03:33:57;;;;;;;25.27;5.22;;;;;;;;;;5071000;28;20392;-68
2022/04/09 03:37:01;;;;;;;20.58;6.38;;;;;;;;;;5070896;28;20051;-68
2022/04/09 03:40:07;;;;;;;35.90;7.90;;;;;;;;;;5071146;28;20190;-68
2022/04/09 03:43:12;;;;;;;27.15;7.93;;;;;;;;;;5071005;28;20412;-68
2022/04/09 03:46:17;;;;;;;33.17;8.60;;;;;;;;;;5070541;28;20045;-68
2022/04/09 03:49:22;;;;;;;34.83;10.00;;;;;;;;;;5071098;28;20346;-68
2022/04/09 03:52:27;;;;;;;31.38;11.80;;;;;;;;;;5070970;28;20047;-68
2022/04/09 03:55:31;;;;;;;35.88;14.45;;;;;;;;;;5069961;28;20063;-68
2022/04/09 03:58:38;;;;;;;42.45;12.82;;;;;;;;;;5070882;28;20059;-67
2022/04/09 04:01:49;;;;;;;32.28;12.40;;;;;;;;;;5070384;28;20388;-68
2022/04/09 04:05:01;;;;;;;42.83;15.07;;;;;;;;;;5070642;28;20039;-68
2022/04/09 04:08:07;;;;;;;45.13;20.35;;;;;;;;;;5070488;28;20068;-68
2022/04/09 04:11:11;;;;;;;44.85;16.08;;;;;;;;;;5070577;28;20044;-68
2022/04/09 04:14:15;;;;;;;34.80;15.82;;;;;;;;;;5058986;28;20052;-68
2022/04/09 04:17:20;;;;;;;36.35;14.15;;;;;;;;;;5070210;28;20055;-69
2022/04/09 04:20:24;;;;;;;31.00;11.75;;;;;;;;;;5070141;28;20043;-69
2022/04/09 04:23:30;;;;;;;37.50;12.15;;;;;;;;;;5070429;28;20245;-68
2022/04/09 04:26:43;;;;;;;34.22;12.82;;;;;;;;;;5070294;28;20040;-69
2022/04/09 04:29:58;;;;;;;36.70;12.25;;;;;;;;;;5059783;28;20628;-69
2022/04/09 04:33:02;;;;;;;32.05;11.75;;;;;;;;;;5058862;28;20048;-68
2022/04/09 04:36:14;;;;;;;35.03;12.60;;;;;;;;;;5070014;28;20051;-68
2022/04/09 04:39:20;;;;;;;34.47;11.15;;;;;;;;;;5070145;28;20051;-69
2022/04/09 04:42:29;;;;;;;39.72;11.75;;;;;;;;;;5070193;28;20044;-69
2022/04/09 04:45:36;;;;;;;31.50;12.23;;;;;;;;;;5070159;28;20048;-69
2022/04/09 04:48:47;;;;;;;28.10;10.52;;;;;;;;;;5069911;28;20051;-68
2022/04/09 04:51:52;;;;;;;33.58;8.93;;;;;;;;;;5069822;28;20282;-69
2022/04/09 04:54:56;;;;;;;35.70;9.60;;;;;;;;;;5070171;28;20515;-65
2022/04/09 04:58:01;;;;;;;29.42;9.95;;;;;;;;;;5069855;28;20059;-64
2022/04/09 05:01:14;;;;;;;36.92;11.60;;;;;;;;;;5069538;28;20519;-66
2022/04/09 05:04:25;;;;;;;33.13;10.15;;;;;;;;;;5068701;28;20052;-66
2022/04/09 05:07:40;;;;;;;41.92;14.45;;;;;;;;;;5070024;28;20060;-66
2022/04/09 05:10:45;;;;;;;48.97;17.88;;;;;;;;;;5074160;28;20047;-65
2022/04/09 05:13:52;;;;;;;30.35;10.27;;;;;;;;;;5073582;28;20040;-65
2022/04/09 05:16:59;;;;;;;30.85;10.73;;;;;;;;;;5073672;28;20055;-66
2022/04/09 05:20:07;;;;;;;27.52;8.73;;;;;;;;;;5073689;28;20043;-65
2022/04/09 05:23:12;;;;;;;34.13;9.30;;;;;;;;;;5073483;28;20059;-66
2022/04/09 05:26:16;;;;;;;52.53;10.40;;;;;;;;;;5073678;28;20032;-67
2022/04/09 05:29:23;;;;;;;43.75;9.90;;;;;;;;;;5062152;28;20052;-66
2022/04/09 05:32:28;;;;;;;32.33;8.77;;;;;;;;;;5073378;28;20036;-66
2022/04/09 05:35:33;;;;;;;39.03;11.38;;;;;;;;;;5074515;28;20051;-66
2022/04/09 05:38:37;;;;;;;29.95;9.98;;;;;;;;;;5074205;28;20515;-65
2022/04/09 05:41:42;;;;;;;36.05;8.93;;;;;;;;;;5073003;28;20040;-66
2022/04/09 05:44:47;;;;;;;36.30;10.35;;;;;;;;;;5073283;28;20374;-66
2022/04/09 05:47:52;;;;;;;33.55;8.77;;;;;;;;;;5072881;28;20051;-66
2022/04/09 05:51:13;;;;;;;32.08;8.80;;;;;;;;;;5073124;28;20373;-66
2022/04/09 05:54:21;;;;;;;23.40;8.32;;;;;;;;;;5073260;28;20041;-66
2022/04/09 05:57:30;;;;;;;28.52;7.30;;;;;;;;;;5072978;28;20045;-66
2022/04/09 06:00:37;;;;;;;31.25;8.88;;;;;;;;;;5072763;28;20429;-67
2022/04/09 06:04:01;;;;;;;26.52;7.38;;;;;;;;;;5072802;28;20559;-66
2022/04/09 06:07:06;;;;;;;28.77;7.18;;;;;;;;;;5072701;28;20048;-66
2022/04/09 06:10:19;;;;;;;28.73;6.60;;;;;;;;;;5072757;28;20037;-68
2022/04/09 06:13:25;;;;;;;25.92;6.30;;;;;;;;;;5072817;28;20032;-66
2022/04/09 06:16:30;;;;;;;27.02;6.18;;;;;;;;;;5072590;28;20040;-66
2022/04/09 06:19:38;;;;;;;32.00;7.40;;;;;;;;;;5071896;28;20040;-67
2022/04/09 06:22:43;;;;;;;29.98;8.82;;;;;;;;;;5072255;28;20041;-66
2022/04/09 06:25:49;;;;;;;49.92;16.30;;;;;;;;;;5072705;28;20039;-67
2022/04/09 06:28:56;;;;;;;40.33;13.82;;;;;;;;;;5072631;28;20047;-67
2022/04/09 06:32:01;;;;;;;42.10;14.20;;;;;;;;;;5072262;28;20456;-68
2022/04/09 06:35:05;;;;;;;37.20;13.23;;;;;;;;;;5072436;28;20052;-68
2022/04/09 06:38:10;;;;;;;31.75;9.80;;;;;;;;;;5072049;28;20515;-68
2022/04/09 06:41:18;;;;;;;32.25;10.80;;;;;;;;;;5072361;28;20032;-66
2022/04/09 06:44:25;;;;;;;36.60;10.20;;;;;;;;;;5072155;28;20052;-68
2022/04/09 06:47:38;;;;;;;31.13;9.05;;;;;;;;;;5071962;28;20039;-66
2022/04/09 06:50:47;;;;;;;34.78;7.25;;;;;;;;;;5072110;28;20044;-67
2022/04/09 06:53:52;;;;;;;29.67;6.68;;;;;;;;;;5060061;28;20047;-66
2022/04/09 06:56:56;;;;;;;30.95;5.85;;;;;;;;;;5060043;28;20056;-67
2022/04/09 07:00:04;;;;;;;25.05;5.28;;;;;;;;;;5060316;28;20044;-68
2022/04/09 07:03:13;;;;;;;22.05;5.25;;;;;;;;;;5060233;28;20060;-68
2022/04/09 07:06:17;;;;;;;42.20;6.97;;;;;;;;;;5072364;28;20033;-68
2022/04/09 07:09:22;;;;;;;19.95;4.35;;;;;;;;;;5071504;28;20044;-69
2022/04/09 07:12:26;;;;;;;32.22;5.13;;;;;;;;;;5072432;28;20052;-72
2022/04/09 07:15:31;;;;;;;21.65;4.43;;;;;;;;;;5072543;28;20043;-72
2022/04/09 07:18:35;;;;;;;27.55;4.40;;;;;;;;;;5072258;28;20080;-68
2022/04/09 07:21:39;;;;;;;24.67;6.38;;;;;;;;;;5071249;28;20044;-70
2022/04/09 07:24:44;;;;;;;22.23;5.80;;;;;;;;;;5071987;28;20044;-70
2022/04/09 07:27:49;;;;;;;25.05;4.65;;;;;;;;;;5070719;28;20036;-70
2022/04/09 07:30:54;;;;;;;35.45;7.30;;;;;;;;;;5071045;28;20063;-68
2022/04/09 07:33:58;;;;;;;24.67;5.38;;;;;;;;;;5071619;28;20036;-69
2022/04/09 07:37:03;;;;;;;32.45;6.63;;;;;;;;;;5071302;28;20065;-71
2022/04/09 07:40:09;;;;;;;39.38;6.95;;;;;;;;;;5071738;28;20033;-68
2022/04/09 07:43:13;;;;;;;30.80;6.80;;;;;;;;;;5071433;28;20045;-68
2022/04/09 07:46:18;;;;;;;44.47;6.75;;;;;;;;;;5071531;28;20032;-68
2022/04/09 07:49:22;;;;;;;38.83;6.65;;;;;;;;;;5070934;28;20044;-68
2022/04/09 07:52:27;;;;;;;30.10;6.03;;;;;;;;;;5070854;28;20048;-67
2022/04/09 07:55:31;;;;;;;35.55;6.68;;;;;;;;;;5071356;28;20041;-67
2022/04/09 07:58:35;;;;;;;25.98;6.13;;;;;;;;;;5070090;28;20052;-69
2022/04/09 08:01:40;;;;;;;41.17;6.25;;;;;;;;;;5070679;28;20036;-67
2022/04/09 08:04:44;;;;;;;26.42;5.55;;;;;;;;;;5070318;28;20048;-69
2022/04/09 08:07:48;;;;;;;32.30;6.53;;;;;;;;;;5071066;28;20041;-68
2022/04/09 08:10:52;;;;;;;27.77;5.78;;;;;;;;;;5071291;28;20527;-67
2022/04/09 08:13:56;;;;;;;44.55;6.70;;;;;;;;;;5071254;28;20028;-66
2022/04/09 08:17:01;;;;;;;24.15;5.38;;;;;;;;;;5071075;28;20059;-68
2022/04/09 08:20:06;;;;;;;35.45;6.65;;;;;;;;;;5070332;28;20035;-67
2022/04/09 08:23:10;;;;;;;23.05;5.22;;;;;;;;;;5070220;28;20043;-70
2022/04/09 08:26:14;;;;;;;23.90;4.78;;;;;;;;;;5070014;28;20032;-67
2022/04/09 08:29:20;;;;;;;22.25;4.03;;;;;;;;;;5070710;28;20033;-69
2022/04/09 08:32:25;;;;;;;23.23;3.83;;;;;;;;;;5069979;28;20397;-69
2022/04/09 08:35:29;;;;;;;32.33;5.15;;;;;;;;;;5070361;28;20127;-71
2022/04/09 08:38:34;;;;;;;20.30;4.65;;;;;;;;;;5070009;28;20064;-69
2022/04/09 08:41:40;;;;;;;18.98;4.47;;;;;;;;;;5058470;28;20052;-66
2022/04/09 08:44:44;;;;;;;21.98;4.75;;;;;;;;;;5070922;28;20055;-68
2022/04/09 08:47:50;;;;;;;29.17;5.05;;;;;;;;;;5070994;28;20045;-69
2022/04/09 08:50:55;;;;;;;29.92;4.57;;;;;;;;;;5069866;28;20428;-68
2022/04/09 08:54:03;;;;;;;27.35;5.35;;;;;;;;;;5070331;28;20036;-68
2022/04/09 08:57:07;;;;;;;19.17;4.30;;;;;;;;;;5070646;28;20044;-68
2022/04/09 09:00:13;;;;;;;17.83;4.07;;;;;;;;;;5070580;28;20059;-67
2022/04/09 09:03:18;;;;;;;24.20;4.60;;;;;;;;;;5070714;28;20535;-68
2022/04/09 09:06:29;;;;;;;24.63;5.07;;;;;;;;;;5069121;28;20400;-67
2022/04/09 09:09:36;;;;;;;29.45;5.07;;;;;;;;;;5069793;28;20055;-69
2022/04/09 09:12:40;;;;;;;29.15;4.72;;;;;;;;;;5069594;28;20177;-67
2022/04/09 09:15:52;;;;;;;24.55;4.50;;;;;;;;;;5070175;28;20400;-68
2022/04/09 09:18:57;;;;;;;29.42;6.13;;;;;;;;;;5069736;28;20067;-70
2022/04/09 09:22:05;;;;;;;28.02;5.68;;;;;;;;;;5070396;28;20037;-68
2022/04/09 09:25:11;;;;;;;29.35;5.32;;;;;;;;;;5070181;28;20047;-71
2022/04/09 09:28:22;;;;;;;21.70;4.68;;;;;;;;;;5070406;28;20039;-67
2022/04/09 09:31:46;;;;;;;20.33;4.73;;;;;;;;;;5070521;28;20051;-72
2022/04/09 09:34:55;;;;;;;29.15;5.25;;;;;;;;;;5070092;28;20283;-68
2022/04/09 09:38:17;;;;;;;27.85;4.80;;;;;;;;;;5069995;28;20510;-70
2022/04/09 09:41:26;;;;;;;20.20;4.53;;;;;;;;;;5069535;28;20048;-67
2022/04/09 09:44:31;;;;;;;24.35;5.38;;;;;;;;;;5069559;28;20044;-68
2022/04/09 09:47:36;;;;;;;13.48;4.05;;;;;;;;;;5069530;28;20029;-70
2022/04/09 09:50:41;;;;;;;28.90;5.50;;;;;;;;;;5070250;28;20040;-70
2022/04/09 09:53:45;;;;;;;23.50;4.80;;;;;;;;;;5070639;28;20478;-69
2022/04/09 09:56:50;;;;;;;24.63;5.28;;;;;;;;;;5073399;28;20040;-68
2022/04/09 09:59:58;;;;;;;19.48;4.38;;;;;;;;;;5073574;28;20074;-68
2022/04/09 10:03:03;;;;;;;32.30;6.25;;;;;;;;;;5073352;28;20044;-69
2022/04/09 10:06:08;;;;;;;20.00;4.72;;;;;;;;;;5073466;28;20036;-69
2022/04/09 10:09:18;;;;;;;21.45;4.60;;;;;;;;;;5073377;28;20049;-69
2022/04/09 10:12:26;;;;;;;19.30;4.82;;;;;;;;;;5073016;28;20037;-69
2022/04/09 10:15:32;;;;;;;21.25;4.78;;;;;;;;;;5072805;28;20396;-68
2022/04/09 10:18:36;;;;;;;14.93;4.03;;;;;;;;;;5073195;28;20060;-68
2022/04/09 10:21:43;;;;;;;18.00;4.60;;;;;;;;;;5072333;28;20052;-67
2022/04/09 10:24:48;;;;;;;23.55;4.90;;;;;;;;;;5073467;28;20051;-68
2022/04/09 10:27:53;;;;;;;21.02;4.97;;;;;;;;;;5072562;28;20038;-68
2022/04/09 10:30:57;;;;;;;17.85;4.47;;;;;;;;;;5073192;28;20036;-70
2022/04/09 10:34:02;;;;;;;17.75;4.38;;;;;;;;;;5072889;28;20033;-69
2022/04/09 10:37:09;;;;;;;21.92;5.00;;;;;;;;;;5072920;28;20043;-67
2022/04/09 10:40:14;;;;;;;24.85;4.65;;;;;;;;;;5072901;28;20044;-70
2022/04/09 10:43:24;;;;;;;16.05;3.70;;;;;;;;;;5072178;28;20047;-68
2022/04/09 10:46:29;;;;;;;15.98;3.70;;;;;;;;;;5072888;28;20033;-67
2022/04/09 10:49:34;;;;;;;17.08;3.70;;;;;;;;;;5073026;28;20396;-70
2022/04/09 10:52:39;;;;;;;20.08;3.92;;;;;;;;;;5072655;28;20064;-67
2022/04/09 10:55:43;;;;;;;7.97;2.90;;;;;;;;;;5073314;28;20056;-68
2022/04/09 10:59:01;;;;;;;8.90;2.50;;;;;;;;;;5072022;28;20233;-69
2022/04/09 11:02:06;;;;;;;18.17;3.88;;;;;;;;;;5072713;28;20032;-67
2022/04/09 11:05:21;;;;;;;19.55;3.35;;;;;;;;;;5072934;28;20044;-69
2022/04/09 11:08:25;;;;;;;12.18;2.92;;;;;;;;;;5071713;28;20508;-69
2022/04/09 11:11:30;;;;;;;24.13;3.92;;;;;;;;;;5072215;28;20415;-68
2022/04/09 11:14:43;;;;;;;11.60;2.90;;;;;;;;;;5072526;28;20041;-69
2022/04/09 11:17:48;;;;;;;12.48;2.88;;;;;;;;;;5071650;28;20048;-70
2022/04/09 11:20:53;;;;;;;17.33;3.20;;;;;;;;;;5073054;28;20040;-68
2022/04/09 11:24:04;;;;;;;15.23;2.90;;;;;;;;;;5072479;28;20048;-69
2022/04/09 11:27:10;;;;;;;10.82;3.10;;;;;;;;;;5072463;28;20044;-68
2022/04/09 11:30:15;;;;;;;14.48;3.00;;;;;;;;;;5072340;28;20037;-68
2022/04/09 11:33:19;;;;;;;10.93;2.50;;;;;;;;;;5072475;28;20403;-68
2022/04/09 11:36:23;;;;;;;9.38;2.35;;;;;;;;;;5072429;28;20047;-69
2022/04/09 11:39:27;;;;;;;12.68;2.83;;;;;;;;;;5071210;28;20036;-69
2022/04/09 11:42:51;;;;;;;10.18;2.92;;;;;;;;;;5071779;28;20048;-67
2022/04/09 11:46:03;;;;;;;10.95;2.55;;;;;;;;;;5072341;28;20033;-67
2022/04/09 11:49:08;;;;;;;11.23;2.67;;;;;;;;;;5070657;28;20041;-67
2022/04/09 11:52:12;;;;;;;10.90;3.00;;;;;;;;;;5070580;28;20040;-68
2022/04/09 11:55:17;;;;;;;14.55;3.38;;;;;;;;;;5072010;28;20040;-68
2022/04/09 11:58:30;;;;;;;9.90;2.92;;;;;;;;;;5071760;28;20049;-68
2022/04/09 12:01:36;;;;;;;8.40;2.20;;;;;;;;;;5070485;28;20033;-67
2022/04/09 12:04:40;;;;;;;20.13;3.28;;;;;;;;;;5069933;28;20052;-67
2022/04/09 12:07:45;;;;;;;11.10;3.33;;;;;;;;;;5071424;28;20366;-68
2022/04/09 12:11:03;;;;;;;11.45;2.60;;;;;;;;;;5070163;28;20052;-68
2022/04/09 12:14:10;;;;;;;8.75;2.75;;;;;;;;;;5070413;28;20216;-67
2022/04/09 12:17:15;;;;;;;10.98;3.45;;;;;;;;;;5070301;28;20036;-69
2022/04/09 12:20:43;;;;;;;6.82;3.35;;;;;;;;;;5070646;28;20032;-68
2022/04/09 12:23:59;;;;;;;8.25;2.55;;;;;;;;;;5071075;28;20480;-68
2022/04/09 12:27:03;;;;;;;11.10;3.28;;;;;;;;;;5070529;28;20033;-68
2022/04/09 12:30:08;;;;;;;11.15;3.50;;;;;;;;;;5070724;28;20044;-69
2022/04/09 12:33:13;;;;;;;6.45;3.05;;;;;;;;;;5058825;28;20041;-66
2022/04/09 12:36:20;;;;;;;11.07;3.15;;;;;;;;;;5071222;28;20032;-68
2022/04/09 12:39:25;;;;;;;11.48;3.13;;;;;;;;;;5071185;28;20049;-68
2022/04/09 12:42:33;;;;;;;8.82;2.67;;;;;;;;;;5071186;28;20384;-66
2022/04/09 12:45:37;;;;;;;15.25;2.80;;;;;;;;;;5071301;28;20036;-68
2022/04/09 12:48:45;;;;;;;13.70;3.10;;;;;;;;;;5071206;28;20040;-68
2022/04/09 12:51:50;;;;;;;17.55;3.55;;;;;;;;;;5071053;28;20040;-68
2022/04/09 12:54:54;;;;;;;17.25;3.80;;;;;;;;;;5069997;28;20028;-69
2022/04/09 12:57:59;;;;;;;25.48;3.90;;;;;;;;;;5070526;28;20055;-68
2022/04/09 13:01:07;;;;;;;18.33;4.20;;;;;;;;;;5070466;28;20496;-67
2022/04/09 13:04:12;;;;;;;23.00;4.60;;;;;;;;;;5070454;28;20051;-69
2022/04/09 13:07:16;;;;;;;17.40;4.50;;;;;;;;;;5070550;28;20056;-69
2022/04/09 13:10:20;;;;;;;19.88;4.55;;;;;;;;;;5070950;28;20076;-68
2022/04/09 13:13:25;;;;;;;20.75;5.03;;;;;;;;;;5070417;28;20036;-67
2022/04/09 13:16:29;;;;;;;28.17;6.07;;;;;;;;;;5070798;28;20611;-70
2022/04/09 13:19:35;;;;;;;29.77;5.82;;;;;;;;;;5070781;28;20056;-68
2022/04/09 13:22:39;;;;;;;31.83;6.53;;;;;;;;;;5070510;28;20468;-68
2022/04/09 13:25:44;;;;;;;38.35;5.95;;;;;;;;;;5070520;28;20049;-65
2022/04/09 13:28:49;;;;;;;27.33;5.53;;;;;;;;;;5070301;28;20036;-68
2022/04/09 13:31:53;;;;;;;25.52;5.30;;;;;;;;;;5073971;28;20429;-68
2022/04/09 13:34:57;;;;;;;23.92;5.10;;;;;;;;;;5073206;28;20044;-67
2022/04/09 13:38:02;;;;;;;33.15;7.25;;;;;;;;;;5074065;28;20047;-67
2022/04/09 13:41:06;;;;;;;31.73;6.55;;;;;;;;;;5073183;28;20057;-68
2022/04/09 13:44:10;;;;;;;39.92;7.65;;;;;;;;;;5074149;28;20048;-68
2022/04/09 13:47:15;;;;;;;38.08;6.40;;;;;;;;;;5074267;28;20044;-67
2022/04/09 13:50:20;;;;;;;34.85;6.65;;;;;;;;;;5074194;28;20044;-68
2022/04/09 13:53:24;;;;;;;29.17;5.75;;;;;;;;;;5074203;28;20036;-67
2022/04/09 13:56:29;;;;;;;36.55;7.60;;;;;;;;;;5074154;28;20028;-67
2022/04/09 13:59:33;;;;;;;36.40;6.63;;;;;;;;;;5073047;28;20057;-67
2022/04/09 14:02:39;;;;;;;29.85;6.30;;;;;;;;;;5073454;28;20036;-67
2022/04/09 14:05:43;;;;;;;37.95;7.57;;;;;;;;;;5073551;28;20052;-68
2022/04/09 14:08:48;;;;;;;27.13;7.32;;;;;;;;;;5074246;28;20056;-67
2022/04/09 14:11:52;;;;;;;34.65;6.75;;;;;;;;;;5073703;28;20037;-68
2022/04/09 14:14:57;;;;;;;34.33;6.30;;;;;;;;;;5073625;28;20048;-66
2022/04/09 14:18:01;;;;;;;36.40;6.72;;;;;;;;;;5073359;28;20036;-68
2022/04/09 14:21:05;;;;;;;35.85;5.47;;;;;;;;;;5073204;28;20045;-66
2022/04/09 14:24:09;;;;;;;32.08;6.80;;;;;;;;;;5073297;28;20040;-67
2022/04/09 14:27:14;;;;;;;29.67;6.22;;;;;;;;;;5073137;28;20381;-68
2022/04/09 14:30:18;;;;;;;21.13;5.50;;;;;;;;;;5072025;28;20040;-69
2022/04/09 14:33:23;;;;;;;35.17;7.00;;;;;;;;;;5073392;28;20040;-67
2022/04/09 14:36:27;;;;;;;28.15;5.97;;;;;;;;;;5073085;28;20045;-67
2022/04/09 14:39:32;;;;;;;23.92;5.38;;;;;;;;;;5072455;28;20468;-66
2022/04/09 14:42:37;;;;;;;27.75;5.40;;;;;;;;;;5072641;28;20047;-68
2022/04/09 14:45:43;;;;;;;36.25;6.68;;;;;;;;;;5071810;28;20040;-69
2022/04/09 14:48:47;;;;;;;36.30;5.68;;;;;;;;;;5072923;28;20321;-67
2022/04/09 14:51:51;;;;;;;48.58;6.55;;;;;;;;;;5072696;28;20044;-67
2022/04/09 14:54:56;;;;;;;29.80;6.28;;;;;;;;;;5072754;28;20037;-68
2022/04/09 14:58:01;;;;;;;32.35;6.07;;;;;;;;;;5072321;28;20049;-70
2022/04/09 15:01:05;;;;;;;27.70;6.22;;;;;;;;;;5072631;28;20040;-69
2022/04/09 15:04:10;;;;;;;20.60;5.25;;;;;;;;;;5072664;28;20044;-68
2022/04/09 15:07:14;;;;;;;27.27;6.63;;;;;;;;;;5072133;28;20578;-68
2022/04/09 15:10:19;;;;;;;27.08;5.28;;;;;;;;;;5072132;28;20037;-68
2022/04/09 15:13:23;;;;;;;30.75;5.28;;;;;;;;;;5072232;28;20373;-67
2022/04/09 15:16:27;;;;;;;31.95;6.25;;;;;;;;;;5072547;28;20040;-68
2022/04/09 15:19:32;;;;;;;26.10;6.70;;;;;;;;;;5071200;28;20044;-68
2022/04/09 15:22:36;;;;;;;30.35;6.30;;;;;;;;;;5071923;28;20036;-67
2022/04/09 15:25:41;;;;;;;26.52;6.05;;;;;;;;;;5072159;28;20045;-69
2022/04/09 15:28:45;;;;;;;27.88;5.00;;;;;;;;;;5071865;28;20044;-69
2022/04/09 15:31:50;;;;;;;29.25;7.22;;;;;;;;;;5072006;28;20036;-68
2022/04/09 15:34:54;;;;;;;28.13;5.43;;;;;;;;;;5072060;28;20113;-68
2022/04/09 15:37:59;;;;;;;23.00;4.88;;;;;;;;;;5070890;28;20404;-68
2022/04/09 15:41:07;;;;;;;27.75;5.57;;;;;;;;;;5071717;28;20040;-68
2022/04/09 15:44:11;;;;;;;27.35;6.20;;;;;;;;;;5071807;28;20495;-67
2022/04/09 15:47:16;;;;;;;28.00;5.05;;;;;;;;;;5071470;28;20040;-71
2022/04/09 15:50:22;;;;;;;26.08;5.45;;;;;;;;;;5071710;28;20044;-68
2022/04/09 15:53:26;;;;;;;24.73;5.30;;;;;;;;;;5059050;28;20051;-68
2022/04/09 15:56:30;;;;;;;23.52;5.10;;;;;;;;;;5071411;28;20047;-69
2022/04/09 15:59:34;;;;;;;28.15;5.40;;;;;;;;;;5071272;28;20048;-71
2022/04/09 16:02:42;;;;;;;22.65;5.07;;;;;;;;;;5071324;28;20036;-69
2022/04/09 16:05:47;;;;;;;31.48;5.68;;;;;;;;;;5071114;28;20409;-68
2022/04/09 16:08:51;;;;;;;25.13;5.00;;;;;;;;;;5070425;28;20146;-69
2022/04/09 16:11:56;;;;;;;25.15;4.50;;;;;;;;;;5070821;28;20546;-69
2022/04/09 16:15:03;;;;;;;19.73;4.35;;;;;;;;;;5070292;28;20051;-71
2022/04/09 16:18:07;;;;;;;22.38;5.60;;;;;;;;;;5071137;28;20060;-67
2022/04/09 16:21:12;;;;;;;19.52;5.07;;;;;;;;;;5070549;28;20036;-69
2022/04/09 16:24:16;;;;;;;22.42;5.13;;;;;;;;;;5070524;28;20139;-71
2022/04/09 16:27:20;;;;;;;23.65;7.68;;;;;;;;;;5070435;28;20036;-69
2022/04/09 16:30:26;;;;;;;21.20;6.13;;;;;;;;;;5070774;28;20047;-69
2022/04/09 16:33:30;;;;;;;21.35;5.88;;;;;;;;;;5069940;28;20051;-68
2022/04/09 16:36:34;;;;;;;19.58;5.00;;;;;;;;;;5069773;28;20392;-69
2022/04/09 16:39:38;;;;;;;26.80;5.00;;;;;;;;;;5070582;28;20049;-68
2022/04/09 16:42:43;;;;;;;20.67;4.63;;;;;;;;;;5070424;28;20041;-67
2022/04/09 16:45:48;;;;;;;18.58;6.40;;;;;;;;;;5070804;28;20064;-73
2022/04/09 16:48:52;;;;;;;17.45;4.80;;;;;;;;;;5070159;28;20032;-73
2022/04/09 16:51:57;;;;;;;28.42;5.53;;;;;;;;;;5070375;28;20051;-72
2022/04/09 16:55:01;;;;;;;23.92;6.97;;;;;;;;;;5070407;28;20041;-72
2022/04/09 16:58:06;;;;;;;20.58;5.22;;;;;;;;;;5070160;28;20044;-72
2022/04/09 17:01:10;;;;;;;21.38;5.57;;;;;;;;;;5070733;28;20047;-72
2022/04/09 17:04:14;;;;;;;20.95;4.70;;;;;;;;;;5075739;28;20032;-72
2022/04/09 17:07:19;;;;;;;30.48;6.97;;;;;;;;;;5076912;28;20411;-73
2022/04/09 17:10:23;;;;;;;23.25;5.47;;;;;;;;;;5076888;28;20037;-73
2022/04/09 17:13:29;;;;;;;32.30;7.00;;;;;;;;;;5076878;28;20041;-75
2022/04/09 17:16:33;;;;;;;25.17;5.97;;;;;;;;;;5077264;28;20059;-71
2022/04/09 17:19:38;;;;;;;28.35;4.57;;;;;;;;;;5077007;28;20081;-71
2022/04/09 17:22:42;;;;;;;25.27;4.70;;;;;;;;;;5076964;28;20036;-71
2022/04/09 17:25:46;;;;;;;13.02;3.75;;;;;;;;;;5077095;28;20060;-72
2022/04/09 17:28:51;;;;;;;18.73;4.38;;;;;;;;;;5076933;28;20036;-73
2022/04/09 17:31:57;;;;;;;29.77;5.82;;;;;;;;;;5076456;28;20514;-72
2022/04/09 17:35:03;;;;;;;23.40;4.35;;;;;;;;;;5077035;28;20044;-72
2022/04/09 17:38:07;;;;;;;19.50;5.55;;;;;;;;;;5076140;28;20056;-72
2022/04/09 17:41:11;;;;;;;23.35;4.82;;;;;;;;;;5076655;28;20040;-72
2022/04/09 17:44:16;;;;;;;15.40;5.57;;;;;;;;;;5076909;28;20040;-72
2022/04/09 17:47:22;;;;;;;20.00;3.88;;;;;;;;;;5076702;28;20041;-72
2022/04/09 17:50:26;;;;;;;18.90;4.93;;;;;;;;;;5063954;28;20040;-72
2022/04/09 17:53:31;;;;;;;21.42;5.20;;;;;;;;;;5076257;28;20416;-72
2022/04/09 17:56:36;;;;;;;16.75;5.25;;;;;;;;;;5076683;28;20051;-72
2022/04/09 17:59:40;;;;;;;20.02;5.40;;;;;;;;;;5076649;28;20400;-72
2022/04/09 18:02:45;;;;;;;23.52;4.88;;;;;;;;;;5076526;28;20037;-71
2022/04/09 18:05:49;;;;;;;24.83;5.18;;;;;;;;;;5076475;28;20045;-72
2022/04/09 18:08:53;;;;;;;28.10;6.55;;;;;;;;;;5076820;28;20047;-72
2022/04/09 18:11:58;;;;;;;25.30;6.35;;;;;;;;;;5076255;28;20040;-72
2022/04/09 18:15:04;;;;;;;28.85;5.65;;;;;;;;;;5073852;28;20041;-71